createdAt,value
2018-03-24T00:01:43.889Z,3.73
2018-03-24T00:04:12.105Z,4.00
2018-03-24T00:06:39.581Z,3.90
2018-03-24T00:09:07.031Z,4.47
2018-03-24T00:11:34.518Z,5.53
2018-03-24T00:14:02.757Z,4.73
2018-03-24T00:16:30.209Z,5.60
2018-03-24T00:18:57.665Z,3.90
2018-03-24T00:21:25.145Z,5.70
2018-03-24T00:23:52.626Z,6.80
2018-03-24T00:26:20.836Z,5.47
2018-03-24T00:28:48.319Z,6.10
2018-03-24T00:31:15.797Z,5.67
2018-03-24T00:33:44.324Z,5.47
2018-03-24T00:36:11.789Z,6.40
2018-03-24T00:38:40.022Z,5.53
2018-03-24T00:41:08.265Z,6.83
2018-03-24T00:43:35.716Z,5.77
2018-03-24T00:46:03.193Z,7.10
2018-03-24T00:48:31.414Z,5.03
2018-03-24T00:50:59.573Z,5.77
2018-03-24T00:53:27.028Z,5.10
2018-03-24T00:55:54.497Z,5.20
2018-03-24T00:58:21.943Z,5.23
2018-03-24T01:00:49.425Z,5.33
2018-03-24T01:03:16.886Z,5.83
2018-03-24T01:05:44.334Z,5.53
2018-03-24T01:08:11.809Z,4.87
2018-03-24T01:10:39.261Z,6.10
2018-03-24T01:13:06.738Z,5.00
2018-03-24T01:15:34.961Z,5.50
2018-03-24T01:18:02.438Z,6.40
2018-03-24T01:20:29.890Z,4.63
2018-03-24T01:22:57.360Z,5.43
2018-03-24T01:25:24.809Z,6.13
2018-03-24T01:27:52.284Z,4.40
2018-03-24T01:30:20.512Z,4.70
2018-03-24T01:32:47.963Z,6.30
2018-03-24T01:35:15.434Z,4.83
2018-03-24T01:37:42.897Z,3.90
2018-03-24T01:40:10.374Z,5.23
2018-03-24T01:42:37.825Z,5.07
2018-03-24T01:45:05.293Z,6.60
2018-03-24T01:47:33.505Z,4.23
2018-03-24T01:50:00.995Z,4.07
2018-03-24T01:52:28.445Z,4.60
2018-03-24T01:54:55.901Z,5.13
2018-03-24T01:57:23.468Z,4.40
2018-03-24T01:59:51.025Z,5.00
2018-03-24T02:02:18.494Z,4.20
2018-03-24T02:04:45.945Z,3.50
2018-03-24T02:07:13.438Z,4.40
2018-03-24T02:09:40.895Z,4.23
2018-03-24T02:12:08.442Z,4.77
2018-03-24T02:14:36.681Z,4.40
2018-03-24T02:17:04.131Z,4.60
2018-03-24T02:19:31.623Z,4.90
2018-03-24T02:21:59.838Z,4.10
2018-03-24T02:24:27.311Z,4.63
2018-03-24T02:26:54.789Z,8.73
2018-03-24T02:29:22.244Z,5.30
2018-03-24T02:31:49.710Z,3.83
2018-03-24T02:34:17.179Z,3.70
2018-03-24T02:36:45.413Z,3.70
2018-03-24T02:39:12.866Z,3.70
2018-03-24T02:41:40.347Z,6.20
2018-03-24T02:44:07.801Z,4.43
2018-03-24T02:46:35.278Z,4.00
2018-03-24T02:49:03.498Z,3.93
2018-03-24T02:51:30.980Z,4.77
2018-03-24T02:53:58.462Z,4.20
2018-03-24T02:56:26.674Z,4.20
2018-03-24T02:58:54.129Z,4.10
2018-03-24T03:01:21.606Z,4.40
2018-03-24T03:03:49.061Z,3.23
2018-03-24T03:06:16.517Z,3.43
2018-03-24T03:08:43.994Z,4.57
2018-03-24T03:11:11.474Z,4.60
2018-03-24T03:13:39.700Z,4.90
2018-03-24T03:16:07.162Z,5.17
2018-03-24T03:18:34.735Z,4.40
2018-03-24T03:21:02.185Z,4.53
2018-03-24T03:23:29.654Z,7.30
2018-03-24T03:25:57.101Z,3.90
2018-03-24T03:28:24.580Z,4.03
2018-03-24T03:33:53.449Z,3.30
2018-03-24T03:36:20.912Z,4.50
2018-03-24T03:38:48.365Z,3.80
2018-03-24T03:41:15.822Z,3.73
2018-03-24T03:43:43.284Z,3.77
2018-03-24T03:46:10.738Z,4.93
2018-03-24T03:48:38.198Z,7.40
2018-03-24T03:51:05.660Z,5.30
2018-03-24T03:53:33.101Z,4.10
2018-03-24T03:56:00.556Z,4.37
2018-03-24T03:58:28.029Z,3.83
2018-03-24T04:00:55.476Z,4.00
2018-03-24T04:03:22.925Z,4.33
2018-03-24T04:05:50.400Z,4.30
2018-03-24T04:08:17.849Z,3.87
2018-03-24T04:10:45.329Z,3.87
2018-03-24T04:13:12.789Z,4.47
2018-03-24T04:15:40.236Z,4.10
2018-03-24T04:18:07.692Z,4.83
2018-03-24T04:20:35.927Z,4.17
2018-03-24T04:23:03.376Z,4.83
2018-03-24T04:25:30.828Z,3.53
2018-03-24T04:27:58.300Z,4.37
2018-03-24T04:30:25.750Z,3.80
2018-03-24T04:32:53.206Z,3.70
2018-03-24T04:35:21.479Z,4.40
2018-03-24T04:37:48.941Z,3.53
2018-03-24T04:40:16.393Z,4.50
2018-03-24T04:42:43.882Z,4.35
2018-03-24T04:45:12.092Z,5.03
2018-03-24T04:47:39.550Z,3.50
2018-03-24T04:50:07.035Z,4.30
2018-03-24T04:52:34.498Z,4.10
2018-03-24T04:55:01.973Z,5.00
2018-03-24T04:57:30.188Z,4.17
2018-03-24T04:59:57.647Z,3.53
2018-03-24T05:02:25.125Z,3.60
2018-03-24T05:04:52.594Z,3.58
2018-03-24T05:07:20.084Z,4.12
2018-03-24T05:09:47.545Z,3.83
2018-03-24T05:12:15.037Z,3.00
2018-03-24T05:14:42.505Z,3.22
2018-03-24T05:17:09.965Z,3.03
2018-03-24T05:19:37.447Z,3.30
2018-03-24T05:22:05.677Z,3.10
2018-03-24T05:24:33.141Z,3.07
2018-03-24T05:27:00.598Z,3.78
2018-03-24T05:29:28.124Z,3.10
2018-03-24T05:31:55.586Z,3.20
2018-03-24T05:34:23.045Z,2.92
2018-03-24T05:36:50.530Z,4.47
2018-03-24T05:39:17.990Z,3.40
2018-03-24T05:41:45.464Z,3.87
2018-03-24T05:44:13.719Z,3.00
2018-03-24T05:46:41.188Z,4.05
2018-03-24T05:49:09.417Z,4.10
2018-03-24T05:51:36.902Z,3.60
2018-03-24T05:54:04.355Z,4.53
2018-03-24T05:56:31.832Z,3.75
2018-03-24T05:59:00.062Z,4.33
2018-03-24T06:01:27.612Z,3.17
2018-03-24T06:03:55.069Z,4.30
2018-03-24T06:06:22.561Z,3.57
2018-03-24T06:08:50.060Z,4.03
2018-03-24T06:11:17.513Z,3.08
2018-03-24T06:13:44.994Z,3.53
2018-03-24T06:16:12.466Z,4.53
2018-03-24T06:18:39.956Z,3.70
2018-03-24T06:21:07.403Z,3.40
2018-03-24T06:23:34.882Z,3.60
2018-03-24T06:26:02.413Z,3.63
2018-03-24T06:28:29.869Z,3.40
2018-03-24T06:31:02.841Z,4.30
2018-03-24T06:33:30.351Z,3.43
2018-03-24T06:35:59.469Z,4.30
2018-03-24T06:38:26.922Z,3.10
2018-03-24T06:40:54.393Z,3.67
2018-03-24T06:43:21.847Z,2.67
2018-03-24T06:45:49.341Z,3.27
2018-03-24T06:48:16.785Z,3.70
2018-03-24T06:50:44.232Z,2.10
2018-03-24T06:53:11.704Z,2.83
2018-03-24T06:55:39.203Z,2.70
2018-03-24T06:58:06.680Z,2.90
2018-03-24T07:00:34.192Z,3.03
2018-03-24T07:03:01.625Z,7.43
2018-03-24T07:05:29.102Z,3.10
2018-03-24T07:07:56.580Z,4.03
2018-03-24T07:10:24.060Z,3.10
2018-03-24T07:12:51.541Z,2.07
2018-03-24T07:15:18.987Z,1.90
2018-03-24T07:17:46.476Z,2.43
2018-03-24T07:20:14.722Z,2.80
2018-03-24T07:22:42.285Z,4.03
2018-03-24T07:25:10.497Z,4.53
2018-03-24T07:27:37.965Z,2.80
2018-03-24T07:30:05.446Z,2.47
2018-03-24T07:32:32.928Z,2.60
2018-03-24T07:35:00.429Z,4.13
2018-03-24T07:37:27.878Z,2.47
2018-03-24T07:39:55.356Z,2.50
2018-03-24T07:42:22.805Z,3.83
2018-03-24T07:44:50.313Z,3.63
2018-03-24T07:47:17.761Z,3.83
2018-03-24T07:49:45.217Z,2.83
2018-03-24T07:52:12.691Z,2.67
2018-03-24T07:54:40.934Z,2.30
2018-03-24T07:57:08.400Z,2.37
2018-03-24T07:59:35.868Z,3.13
2018-03-24T08:02:03.340Z,2.87
2018-03-24T08:04:31.594Z,3.83
2018-03-24T08:06:59.049Z,2.30
2018-03-24T08:09:26.525Z,3.53
2018-03-24T08:11:56.777Z,3.00
2018-03-24T08:14:24.214Z,3.83
2018-03-24T08:16:51.928Z,3.63
2018-03-24T08:19:19.498Z,2.17
2018-03-24T08:21:47.011Z,2.90
2018-03-24T08:24:14.457Z,1.50
2018-03-24T08:26:41.972Z,1.63
2018-03-24T08:29:09.419Z,1.70
2018-03-24T08:31:36.904Z,3.30
2018-03-24T08:34:05.124Z,2.00
2018-03-24T08:36:32.926Z,1.80
2018-03-24T08:39:00.649Z,3.50
2018-03-24T08:41:28.270Z,2.00
2018-03-24T08:43:55.905Z,4.33
2018-03-24T08:46:24.156Z,1.63
2018-03-24T08:48:52.019Z,1.70
2018-03-24T08:51:20.281Z,1.10
2018-03-24T08:53:47.734Z,1.70
2018-03-24T08:56:15.181Z,1.97
2018-03-24T08:58:42.725Z,1.40
2018-03-24T09:01:10.169Z,1.10
2018-03-24T09:03:37.674Z,1.93
2018-03-24T09:06:05.166Z,1.80
2018-03-24T09:08:33.395Z,2.00
2018-03-24T09:11:00.839Z,3.10
2018-03-24T09:13:28.308Z,3.30
2018-03-24T09:15:55.769Z,1.50
2018-03-24T09:18:23.264Z,1.83
2018-03-24T09:20:51.566Z,2.60
2018-03-24T09:23:19.606Z,2.30
2018-03-24T09:25:47.208Z,3.53
2018-03-24T09:28:14.665Z,2.63
2018-03-24T09:30:42.136Z,3.60
2018-03-24T09:33:09.761Z,2.70
2018-03-24T09:35:37.257Z,3.37
2018-03-24T09:38:04.713Z,3.53
2018-03-24T09:40:32.192Z,2.70
2018-03-24T09:42:59.650Z,2.27
2018-03-24T09:45:27.101Z,1.20
2018-03-24T09:47:54.587Z,1.87
2018-03-24T09:50:22.050Z,1.40
2018-03-24T09:52:49.669Z,1.70
2018-03-24T09:55:19.050Z,1.37
2018-03-24T09:57:46.921Z,2.73
2018-03-24T10:00:14.635Z,1.93
2018-03-24T10:02:42.969Z,1.33
2018-03-24T10:05:10.428Z,1.07
2018-03-24T10:07:37.885Z,2.10
2018-03-24T10:10:05.555Z,3.30
2018-03-24T10:12:33.006Z,2.50
2018-03-24T10:15:00.485Z,4.13
2018-03-24T10:17:28.708Z,2.57
2018-03-24T10:19:56.204Z,1.67
2018-03-24T10:25:23.945Z,2.30
2018-03-24T10:27:51.458Z,2.50
2018-03-24T10:30:18.950Z,2.70
2018-03-24T10:32:46.842Z,2.40
2018-03-24T10:35:14.318Z,1.57
2018-03-24T10:37:47.489Z,1.27
2018-03-24T10:40:14.972Z,1.50
2018-03-24T10:42:43.213Z,1.50
2018-03-24T10:45:10.770Z,1.80
2018-03-24T10:47:38.298Z,1.43
2018-03-24T10:50:05.744Z,1.63
2018-03-24T10:52:33.195Z,2.00
2018-03-24T10:55:00.680Z,1.57
2018-03-24T10:57:28.129Z,2.07
2018-03-24T10:59:55.605Z,1.57
2018-03-24T11:02:23.202Z,1.97
2018-03-24T11:04:50.690Z,2.90
2018-03-24T11:07:18.187Z,1.67
2018-03-24T11:09:45.746Z,3.20
2018-03-24T11:12:13.228Z,1.40
2018-03-24T11:14:41.465Z,2.30
2018-03-24T11:17:09.025Z,1.43
2018-03-24T11:19:36.586Z,1.60
2018-03-24T11:22:04.061Z,1.70
2018-03-24T11:24:32.283Z,1.73
2018-03-24T11:26:59.759Z,2.00
2018-03-24T11:29:27.229Z,1.80
2018-03-24T11:31:54.689Z,1.47
2018-03-24T11:34:22.173Z,1.80
2018-03-24T11:36:50.382Z,1.70
2018-03-24T11:39:17.863Z,1.90
2018-03-24T11:41:45.314Z,1.30
2018-03-24T11:44:12.917Z,2.10
2018-03-24T11:46:41.136Z,1.53
2018-03-24T11:49:08.616Z,1.53
2018-03-24T11:51:36.169Z,2.80
2018-03-24T11:54:04.149Z,2.10
2018-03-24T11:56:31.833Z,1.77
2018-03-24T11:59:00.302Z,1.80
2018-03-24T12:01:28.735Z,1.80
2018-03-24T12:03:56.226Z,2.07
2018-03-24T12:06:23.674Z,1.70
2018-03-24T12:08:51.145Z,2.00
2018-03-24T12:11:19.406Z,2.23
2018-03-24T12:13:46.875Z,2.00
2018-03-24T12:16:15.125Z,2.40
2018-03-24T12:18:42.958Z,2.07
2018-03-24T12:21:10.417Z,3.67
2018-03-24T12:23:37.895Z,2.80
2018-03-24T12:26:05.375Z,2.70
2018-03-24T12:28:33.606Z,3.80
2018-03-24T12:31:01.091Z,2.40
2018-03-24T12:33:31.772Z,2.20
2018-03-24T12:35:59.395Z,4.97
2018-03-24T12:38:27.662Z,3.50
2018-03-24T12:40:55.214Z,3.30
2018-03-24T12:43:22.777Z,2.40
2018-03-24T12:45:50.229Z,2.30
2018-03-24T12:48:17.688Z,2.03
2018-03-24T12:50:45.458Z,2.17
2018-03-24T12:53:13.095Z,2.10
2018-03-24T12:55:40.581Z,2.90
2018-03-24T12:58:08.234Z,2.90
2018-03-24T13:00:35.699Z,2.63
2018-03-24T13:03:03.164Z,2.40
2018-03-24T13:05:31.408Z,2.40
2018-03-24T13:07:59.002Z,2.90
2018-03-24T13:10:27.222Z,2.53
2018-03-24T13:12:54.713Z,2.97
2018-03-24T13:15:22.259Z,2.80
2018-03-24T13:17:49.716Z,3.20
2018-03-24T13:20:17.197Z,2.63
2018-03-24T13:22:45.416Z,3.07
2018-03-24T13:25:12.889Z,2.53
2018-03-24T13:27:40.386Z,2.57
2018-03-24T13:30:07.914Z,2.13
2018-03-24T13:32:35.410Z,1.80
2018-03-24T13:35:03.685Z,3.20
2018-03-24T13:37:31.097Z,2.80
2018-03-24T13:39:58.593Z,2.20
2018-03-24T13:42:26.831Z,2.77
2018-03-24T13:44:54.277Z,2.33
2018-03-24T13:47:21.834Z,2.90
2018-03-24T13:49:49.285Z,4.03
2018-03-24T13:52:16.861Z,3.80
2018-03-24T13:54:44.418Z,3.67
2018-03-24T13:57:12.648Z,6.07
2018-03-24T13:59:40.140Z,5.30
2018-03-24T14:02:07.602Z,3.27
2018-03-24T14:04:35.876Z,2.30
2018-03-24T14:07:03.442Z,2.70
2018-03-24T14:09:30.997Z,2.53
2018-03-24T14:11:59.250Z,2.80
2018-03-24T14:14:26.701Z,3.10
2018-03-24T14:16:54.162Z,2.50
2018-03-24T14:19:21.784Z,2.53
2018-03-24T14:21:49.236Z,2.10
2018-03-24T14:24:16.691Z,1.10
2018-03-24T14:26:44.173Z,1.30
2018-03-24T14:29:11.629Z,1.37
2018-03-24T14:31:39.315Z,1.90
2018-03-24T14:34:07.585Z,1.50
2018-03-24T14:36:35.348Z,1.40
2018-03-24T14:39:03.023Z,1.80
2018-03-24T14:41:31.767Z,1.43
2018-03-24T14:43:59.633Z,1.10
2018-03-24T14:46:27.500Z,1.13
2018-03-24T14:48:55.282Z,1.03
2018-03-24T14:51:26.051Z,0.73
2018-03-24T14:53:54.675Z,1.40
2018-03-24T14:56:22.541Z,1.13
2018-03-24T14:58:50.284Z,1.20
2018-03-24T15:01:18.170Z,1.63
2018-03-24T15:03:45.974Z,2.10
2018-03-24T15:06:14.514Z,1.50
2018-03-24T15:08:42.380Z,1.53
2018-03-24T15:11:10.189Z,1.30
2018-03-24T15:13:38.722Z,1.20
2018-03-24T15:16:06.330Z,1.20
2018-03-24T15:18:33.886Z,1.00
2018-03-24T15:21:01.353Z,1.20
2018-03-24T15:23:29.593Z,2.03
2018-03-24T15:25:57.080Z,0.97
2018-03-24T15:28:27.048Z,0.90
2018-03-24T15:31:06.415Z,1.57
2018-03-24T15:33:46.705Z,1.60
2018-03-24T15:36:26.841Z,1.40
2018-03-24T15:38:54.287Z,1.07
2018-03-24T15:41:21.745Z,1.00
2018-03-24T15:43:49.218Z,1.13
2018-03-24T15:46:17.468Z,1.17
2018-03-24T15:48:45.027Z,1.50
2018-03-24T15:51:12.586Z,1.33
2018-03-24T15:53:40.248Z,1.80
2018-03-24T15:56:07.831Z,1.50
2018-03-24T15:58:35.291Z,2.00
2018-03-24T16:01:02.766Z,1.93
2018-03-24T16:03:30.275Z,2.40
2018-03-24T16:05:57.767Z,1.77
2018-03-24T16:08:25.527Z,2.10
2018-03-24T16:10:53.821Z,2.30
2018-03-24T16:13:21.309Z,2.33
2018-03-24T16:15:49.594Z,2.17
2018-03-24T16:18:17.095Z,3.50
2018-03-24T16:20:45.433Z,3.53
2018-03-24T16:23:12.886Z,2.97
2018-03-24T16:25:40.738Z,4.80
2018-03-24T16:28:08.237Z,2.10
2018-03-24T16:30:36.505Z,2.87
2018-03-24T16:33:09.641Z,2.60
2018-03-24T16:35:40.064Z,3.53
2018-03-24T16:38:07.548Z,3.60
2018-03-24T16:40:35.032Z,3.70
2018-03-24T16:43:03.244Z,2.20
2018-03-24T16:45:30.770Z,2.93
2018-03-24T16:47:58.415Z,2.53
2018-03-24T16:50:26.654Z,2.47
2018-03-24T16:52:54.288Z,2.77
2018-03-24T16:55:21.741Z,2.67
2018-03-24T16:57:49.222Z,2.30
2018-03-24T17:00:16.905Z,2.47
2018-03-24T17:02:44.391Z,1.50
2018-03-24T17:05:12.624Z,2.20
2018-03-24T17:07:40.130Z,1.80
2018-03-24T17:10:08.353Z,1.93
2018-03-24T17:12:35.810Z,1.70
2018-03-24T17:15:03.431Z,2.20
2018-03-24T17:17:30.951Z,1.80
2018-03-24T17:19:59.240Z,1.50
2018-03-24T17:22:26.728Z,2.10
2018-03-24T17:24:54.200Z,1.67
2018-03-24T17:27:21.682Z,1.50
2018-03-24T17:29:49.253Z,1.90
2018-03-24T17:32:16.728Z,1.63
2018-03-24T17:34:44.942Z,1.60
2018-03-24T17:37:12.422Z,1.47
2018-03-24T17:39:39.869Z,1.57
2018-03-24T17:42:07.348Z,1.47
2018-03-24T17:44:35.575Z,1.57
2018-03-24T17:47:03.053Z,1.47
2018-03-24T17:49:30.557Z,1.37
2018-03-24T17:51:58.755Z,1.80
2018-03-24T17:54:26.222Z,1.47
2018-03-24T17:56:53.675Z,1.40
2018-03-24T17:59:21.152Z,1.93
2018-03-24T18:01:48.604Z,1.90
2018-03-24T18:04:16.081Z,1.90
2018-03-24T18:06:43.565Z,1.40
2018-03-24T18:09:11.083Z,1.60
2018-03-24T18:11:38.852Z,1.90
2018-03-24T18:14:06.302Z,1.80
2018-03-24T18:16:33.780Z,1.83
2018-03-24T18:19:02.005Z,1.83
2018-03-24T18:21:29.629Z,1.70
2018-03-24T18:23:57.073Z,1.43
2018-03-24T18:26:25.326Z,1.33
2018-03-24T18:28:53.557Z,1.30
2018-03-24T18:31:21.051Z,1.80
2018-03-24T18:33:48.510Z,2.10
2018-03-24T18:36:16.066Z,2.33
2018-03-24T18:38:43.968Z,1.80
2018-03-24T18:41:11.422Z,1.90
2018-03-24T18:43:38.957Z,1.50
2018-03-24T18:46:06.427Z,1.97
2018-03-24T18:48:34.680Z,1.77
2018-03-24T18:51:02.163Z,1.70
2018-03-24T18:53:30.382Z,2.00
2018-03-24T18:55:57.882Z,2.10
2018-03-24T18:58:26.104Z,1.97
2018-03-24T19:00:53.562Z,2.10
2018-03-24T19:03:21.057Z,1.97
2018-03-24T19:05:48.504Z,1.40
2018-03-24T19:08:15.949Z,1.70
2018-03-24T19:10:44.439Z,1.87
2018-03-24T19:13:11.890Z,2.67
2018-03-24T19:15:39.445Z,1.97
2018-03-24T19:18:06.906Z,2.83
2018-03-24T19:20:34.381Z,2.00
2018-03-24T19:23:02.605Z,2.10
2018-03-24T19:25:30.078Z,2.13
2018-03-24T19:27:57.647Z,1.73
2018-03-24T19:30:25.128Z,2.20
2018-03-24T19:32:53.337Z,2.77
2018-03-24T19:35:20.873Z,2.23
2018-03-24T19:37:48.355Z,1.97
2018-03-24T19:40:15.831Z,2.67
2018-03-24T19:42:43.317Z,2.73
2018-03-24T19:45:10.770Z,2.90
2018-03-24T19:47:38.262Z,2.30
2018-03-24T19:50:05.762Z,2.00
2018-03-24T19:52:33.160Z,2.90
2018-03-24T19:55:00.646Z,2.57
2018-03-24T19:57:28.106Z,2.50
2018-03-24T19:59:55.591Z,2.60
2018-03-24T20:02:23.037Z,2.13
2018-03-24T20:04:50.535Z,2.20
2018-03-24T20:07:18.793Z,3.30
2018-03-24T20:09:46.229Z,2.33
2018-03-24T20:12:13.715Z,2.40
2018-03-24T20:14:41.953Z,2.90
2018-03-24T20:17:09.449Z,2.40
2018-03-24T20:19:37.669Z,2.30
2018-03-24T20:22:05.128Z,2.40
2018-03-24T20:24:32.612Z,3.00
2018-03-24T20:27:00.098Z,2.77
2018-03-24T20:29:28.325Z,3.47
2018-03-24T20:31:55.789Z,2.70
2018-03-24T20:34:23.258Z,3.10
2018-03-24T20:36:50.710Z,2.57
2018-03-24T20:39:18.182Z,3.37
2018-03-24T20:41:45.682Z,3.20
2018-03-24T20:44:13.139Z,2.87
2018-03-24T20:46:40.618Z,3.33
2018-03-24T20:49:08.087Z,2.90
2018-03-24T20:51:35.558Z,3.33
2018-03-24T20:54:03.116Z,3.00
2018-03-24T20:56:30.522Z,3.33
2018-03-24T20:58:58.003Z,3.80
2018-03-24T21:01:26.302Z,4.00
2018-03-24T21:03:53.725Z,4.13
2018-03-24T21:06:21.263Z,3.23
2018-03-24T21:08:48.741Z,3.40
2018-03-24T21:11:16.225Z,3.30
2018-03-24T21:13:43.677Z,4.33
2018-03-24T21:16:11.132Z,3.73
2018-03-24T21:18:38.717Z,3.60
2018-03-24T21:21:06.941Z,3.40
2018-03-24T21:23:34.417Z,3.93
2018-03-24T21:26:01.968Z,3.50
2018-03-24T21:28:29.530Z,3.30
2018-03-24T21:30:57.010Z,3.50
2018-03-24T21:33:25.266Z,3.37
2018-03-24T21:35:52.833Z,4.20
2018-03-24T21:38:20.373Z,3.93
2018-03-24T21:40:47.832Z,4.20
2018-03-24T21:43:15.314Z,4.30
2018-03-24T21:45:43.661Z,3.87
2018-03-24T21:48:11.228Z,3.90
2018-03-24T21:50:38.850Z,4.17
2018-03-24T21:53:06.264Z,4.80
2018-03-24T21:55:34.583Z,3.67
2018-03-24T21:58:02.037Z,4.53
2018-03-24T22:00:29.625Z,4.70
2018-03-24T22:02:57.185Z,4.20
2018-03-24T22:05:24.636Z,4.77
2018-03-24T22:07:52.203Z,5.10
2018-03-24T22:10:19.682Z,4.70
2018-03-24T22:12:48.036Z,4.70
2018-03-24T22:15:15.499Z,4.83
2018-03-24T22:17:42.977Z,4.20
2018-03-24T22:20:10.492Z,4.13
2018-03-24T22:22:37.953Z,4.97
2018-03-24T22:25:05.401Z,5.63
2018-03-24T22:27:32.903Z,5.07
2018-03-24T22:30:00.361Z,5.90
2018-03-24T22:32:28.574Z,5.67
2018-03-24T22:34:56.058Z,6.60
2018-03-24T22:37:23.546Z,5.53
2018-03-24T22:39:51.765Z,5.90
2018-03-24T22:42:19.341Z,5.00
2018-03-24T22:44:46.807Z,5.33
2018-03-24T22:47:14.292Z,6.13
2018-03-24T22:49:42.513Z,7.30
2018-03-24T22:52:10.003Z,6.43
2018-03-24T22:54:38.250Z,5.87
2018-03-24T22:57:06.465Z,8.50
2018-03-24T22:59:33.941Z,6.37
2018-03-24T23:02:01.449Z,5.80
2018-03-24T23:04:28.901Z,5.70
2018-03-24T23:06:56.381Z,6.80
2018-03-24T23:09:24.627Z,5.60
2018-03-24T23:11:52.083Z,4.93
2018-03-24T23:14:19.645Z,4.57
2018-03-24T23:16:47.201Z,4.53
2018-03-24T23:19:14.753Z,5.50
2018-03-24T23:21:42.212Z,4.97
2018-03-24T23:24:09.758Z,5.33
2018-03-24T23:26:37.210Z,5.20
2018-03-24T23:29:04.784Z,5.00
2018-03-24T23:31:32.264Z,5.40
2018-03-24T23:34:00.477Z,4.60
2018-03-24T23:36:28.021Z,5.33
2018-03-24T23:38:55.474Z,5.00
2018-03-24T23:41:22.955Z,5.60
2018-03-24T23:43:50.487Z,5.57
2018-03-24T23:46:17.983Z,4.80
2018-03-24T23:48:45.437Z,4.90
2018-03-24T23:51:13.017Z,6.40
2018-03-24T23:53:41.228Z,4.67
2018-03-24T23:56:08.700Z,4.40
2018-03-24T23:58:36.150Z,5.00
